createdAt,value
2022-12-23T00:02:04.045Z,97835.97
2022-12-23T00:04:31.133Z,97839.88
2022-12-23T00:06:58.099Z,97833.34
2022-12-23T00:09:24.940Z,97832.41
2022-12-23T00:12:11.795Z,97836.97
2022-12-23T00:14:57.351Z,97837.50
2022-12-23T00:17:24.294Z,97842.06
2022-12-23T00:19:51.225Z,97839.47
2022-12-23T00:22:18.443Z,97838.44
2022-12-23T00:24:45.366Z,97836.94
2022-12-23T00:27:12.262Z,97828.25
2022-12-23T00:29:39.134Z,97834.69
2022-12-23T00:32:06.099Z,97830.63
2022-12-23T00:34:33.035Z,97831.25
2022-12-23T00:36:59.950Z,97830.56
2022-12-23T00:39:45.202Z,97821.31
2022-12-23T00:42:30.596Z,97821.06
2022-12-23T00:45:15.746Z,97816.41
2022-12-23T00:48:02.806Z,97816.72
2022-12-23T00:50:30.155Z,97808.41
2022-12-23T00:52:57.589Z,97806.63
2022-12-23T00:55:24.701Z,97809.97
2022-12-23T00:57:51.757Z,97801.53
2022-12-23T01:00:19.709Z,97792.66
2022-12-23T01:03:05.655Z,97791.28
2022-12-23T01:05:38.472Z,97792.47
2022-12-23T01:08:07.580Z,97790.13
2022-12-23T01:10:36.144Z,97792.53
2022-12-23T01:13:03.569Z,97787.78
2022-12-23T01:15:30.946Z,97782.81
2022-12-23T01:17:58.170Z,97776.94
2022-12-23T01:20:25.662Z,97775.03
2022-12-23T01:22:52.532Z,97772.84
2022-12-23T01:25:19.391Z,97767.94
2022-12-23T01:27:46.299Z,97764.50
2022-12-23T01:30:13.407Z,97760.13
2022-12-23T01:32:40.296Z,97765.25
2022-12-23T01:35:07.480Z,97761.31
2022-12-23T01:37:34.779Z,97763.63
2022-12-23T01:40:01.727Z,97760.53
2022-12-23T01:42:43.674Z,97755.38
2022-12-23T01:45:18.100Z,97761.25
2022-12-23T01:47:47.818Z,97753.75
2022-12-23T01:50:27.046Z,97747.50
2022-12-23T01:53:08.083Z,97752.59
2022-12-23T01:56:00.918Z,97758.03
2022-12-23T01:58:27.921Z,97747.34
2022-12-23T02:01:16.655Z,97744.97
2022-12-23T02:03:45.269Z,97738.84
2022-12-23T02:06:43.180Z,97740.59
2022-12-23T02:09:19.470Z,97734.91
2022-12-23T02:12:24.468Z,97732.47
2022-12-23T02:15:22.153Z,97736.06
2022-12-23T02:18:03.975Z,97741.97
2022-12-23T02:21:07.762Z,97738.50
2022-12-23T02:23:43.544Z,97746.38
2022-12-23T02:26:49.046Z,97737.56
2022-12-23T02:29:51.032Z,97743.63
2022-12-23T02:32:17.989Z,97738.41
2022-12-23T02:35:13.452Z,97731.94
2022-12-23T02:38:10.145Z,97730.56
2022-12-23T02:40:43.582Z,97722.81
2022-12-23T02:43:24.902Z,97722.13
2022-12-23T02:45:58.222Z,97719.56
2022-12-23T02:48:41.493Z,97729.03
2022-12-23T02:51:13.153Z,97724.59
2022-12-23T02:53:46.991Z,97725.94
2022-12-23T02:56:15.766Z,97716.00
2022-12-23T02:59:06.437Z,97725.69
2022-12-23T03:01:35.045Z,97720.66
2022-12-23T03:04:02.219Z,97720.53
2022-12-23T03:06:34.324Z,97723.19
2022-12-23T03:09:01.338Z,97726.53
2022-12-23T03:11:45.376Z,97724.06
2022-12-23T03:14:27.501Z,97720.41
2022-12-23T03:17:05.581Z,97721.31
2022-12-23T03:19:54.478Z,97718.84
2022-12-23T03:22:24.001Z,97716.81
2022-12-23T03:25:26.009Z,97717.31
2022-12-23T03:28:01.440Z,97722.63
2022-12-23T03:30:30.307Z,97719.91
2022-12-23T03:33:03.424Z,97713.41
2022-12-23T03:35:35.313Z,97711.44
2022-12-23T03:38:04.045Z,97709.06
2022-12-23T03:40:39.254Z,97705.38
2022-12-23T03:43:26.889Z,97710.88
2022-12-23T03:46:26.038Z,97709.06
2022-12-23T03:48:56.597Z,97710.25
2022-12-23T03:51:29.401Z,97712.63
2022-12-23T03:54:16.719Z,97713.69
2022-12-23T03:56:49.715Z,97709.66
2022-12-23T03:59:22.025Z,97709.34
2022-12-23T04:02:04.308Z,97708.03
2022-12-23T04:04:59.338Z,97706.72
2022-12-23T04:07:34.945Z,97709.06
2022-12-23T04:10:02.256Z,97703.91
2022-12-23T04:12:30.710Z,97704.41
2022-12-23T04:14:57.844Z,97706.53
2022-12-23T04:17:24.805Z,97706.47
2022-12-23T04:19:52.797Z,97712.66
2022-12-23T04:22:19.773Z,97711.97
2022-12-23T04:24:46.880Z,97715.31
2022-12-23T04:27:15.185Z,97715.31
2022-12-23T04:29:43.009Z,97713.97
2022-12-23T04:32:10.243Z,97719.66
2022-12-23T04:34:37.262Z,97715.09
2022-12-23T04:37:04.244Z,97725.03
2022-12-23T04:39:31.175Z,97718.91
2022-12-23T04:41:58.073Z,97725.97
2022-12-23T04:44:24.996Z,97724.28
2022-12-23T04:46:52.070Z,97724.84
2022-12-23T04:49:19.063Z,97716.22
2022-12-23T04:51:46.027Z,97718.25
2022-12-23T04:54:12.939Z,97712.91
2022-12-23T04:56:39.869Z,97722.50
2022-12-23T04:59:06.756Z,97716.94
2022-12-23T05:01:33.865Z,97723.91
2022-12-23T05:04:00.908Z,97721.09
2022-12-23T05:06:27.921Z,97724.91
2022-12-23T05:08:54.807Z,97732.00
2022-12-23T05:11:21.725Z,97727.97
2022-12-23T05:13:48.587Z,97728.38
2022-12-23T05:16:15.572Z,97717.59
2022-12-23T05:18:42.581Z,97724.75
2022-12-23T05:21:09.622Z,97722.25
2022-12-23T05:23:36.588Z,97716.66
2022-12-23T05:26:03.767Z,97718.91
2022-12-23T05:28:30.777Z,97717.97
2022-12-23T05:31:17.151Z,97718.13
2022-12-23T05:33:44.503Z,97713.72
2022-12-23T05:36:12.588Z,97725.88
2022-12-23T05:38:39.558Z,97721.03
2022-12-23T05:41:07.247Z,97731.19
2022-12-23T05:43:34.237Z,97724.47
2022-12-23T05:46:01.182Z,97725.66
2022-12-23T05:48:28.152Z,97733.22
2022-12-23T05:50:55.104Z,97726.66
2022-12-23T05:53:22.078Z,97727.31
2022-12-23T05:55:49.035Z,97725.50
2022-12-23T05:58:16.227Z,97727.66
2022-12-23T06:00:43.827Z,97732.16
2022-12-23T06:03:12.078Z,97736.56
2022-12-23T06:05:40.140Z,97732.75
2022-12-23T06:08:07.092Z,97740.06
2022-12-23T06:10:34.075Z,97741.47
2022-12-23T06:13:01.022Z,97743.59
2022-12-23T06:15:27.965Z,97740.03
2022-12-23T06:17:56.058Z,97740.31
2022-12-23T06:20:23.300Z,97734.84
2022-12-23T06:22:50.259Z,97743.16
2022-12-23T06:25:17.175Z,97741.03
2022-12-23T06:27:44.186Z,97749.53
2022-12-23T06:30:11.850Z,97742.59
2022-12-23T06:32:39.158Z,97748.09
2022-12-23T06:35:08.339Z,97755.25
2022-12-23T06:37:35.425Z,97752.25
2022-12-23T06:40:02.402Z,97752.34
2022-12-23T06:42:29.473Z,97749.97
2022-12-23T06:44:56.341Z,97748.66
2022-12-23T06:47:23.419Z,97755.03
2022-12-23T06:49:50.288Z,97750.00
2022-12-23T06:52:17.340Z,97750.72
2022-12-23T06:54:44.299Z,97752.66
2022-12-23T06:57:11.311Z,97747.84
2022-12-23T06:59:38.257Z,97753.16
2022-12-23T07:02:05.859Z,97747.50
2022-12-23T07:04:32.907Z,97753.06
2022-12-23T07:06:59.792Z,97750.84
2022-12-23T07:09:26.781Z,97749.09
2022-12-23T07:11:54.070Z,97752.44
2022-12-23T07:14:21.020Z,97751.75
2022-12-23T07:16:48.432Z,97752.13
2022-12-23T07:19:15.479Z,97749.69
2022-12-23T07:21:42.427Z,97743.91
2022-12-23T07:24:09.493Z,97748.88
2022-12-23T07:26:36.513Z,97745.31
2022-12-23T07:29:04.735Z,97754.31
2022-12-23T07:31:31.701Z,97757.31
2022-12-23T07:33:58.865Z,97761.81
2022-12-23T07:36:25.810Z,97759.22
2022-12-23T07:38:52.795Z,97759.34
2022-12-23T07:41:19.996Z,97754.16
2022-12-23T07:43:48.106Z,97755.38
2022-12-23T07:46:15.291Z,97753.19
2022-12-23T07:48:42.430Z,97756.75
2022-12-23T07:51:09.623Z,97754.94
2022-12-23T07:53:36.933Z,97749.31
2022-12-23T07:56:04.193Z,97753.03
2022-12-23T07:58:31.190Z,97756.31
2022-12-23T08:01:03.074Z,97760.19
2022-12-23T08:03:30.284Z,97756.72
2022-12-23T08:06:16.452Z,97758.81
2022-12-23T08:08:45.772Z,97752.53
2022-12-23T08:11:14.794Z,97757.06
2022-12-23T08:13:44.870Z,97754.69
2022-12-23T08:16:12.578Z,97754.75
2022-12-23T08:18:41.382Z,97747.75
2022-12-23T08:21:12.793Z,97754.38
2022-12-23T08:23:39.817Z,97751.97
2022-12-23T08:26:09.908Z,97748.88
2022-12-23T08:28:38.250Z,97748.28
2022-12-23T08:31:07.936Z,97746.91
2022-12-23T08:33:36.754Z,97739.59
2022-12-23T08:36:04.684Z,97738.50
2022-12-23T08:38:32.188Z,97736.13
2022-12-23T08:40:59.154Z,97732.81
2022-12-23T08:43:31.771Z,97732.13
2022-12-23T08:46:02.510Z,97728.91
2022-12-23T08:48:29.515Z,97722.19
2022-12-23T08:50:56.450Z,97720.56
2022-12-23T08:53:23.387Z,97706.50
2022-12-23T08:55:50.253Z,97701.53
2022-12-23T08:58:17.177Z,97706.59
2022-12-23T09:00:44.181Z,97700.72
2022-12-23T09:03:11.282Z,97713.19
2022-12-23T09:05:42.259Z,97701.91
2022-12-23T09:08:09.734Z,97705.47
2022-12-23T09:10:44.406Z,97703.53
2022-12-23T09:13:17.900Z,97700.41
2022-12-23T09:15:49.503Z,97699.22
2022-12-23T09:18:16.415Z,97691.69
2022-12-23T09:20:43.374Z,97688.66
2022-12-23T09:23:10.423Z,97688.50
2022-12-23T09:25:37.481Z,97683.19
2022-12-23T09:28:06.779Z,97680.50
2022-12-23T09:30:33.645Z,97679.72
2022-12-23T09:33:00.509Z,97676.59
2022-12-23T09:35:27.412Z,97673.50
2022-12-23T09:37:54.365Z,97674.19
2022-12-23T09:40:22.023Z,97667.94
2022-12-23T09:43:16.831Z,97670.72
2022-12-23T10:17:41.715Z,97664.56
2022-12-23T10:20:18.578Z,97665.03
2022-12-23T10:22:47.394Z,97669.59
2022-12-23T10:25:25.448Z,97669.84
2022-12-23T10:27:52.387Z,97666.53
2022-12-23T10:33:24.571Z,97656.50
2022-12-23T10:36:12.809Z,97646.78
2022-12-23T10:39:01.524Z,97648.53
2022-12-23T10:41:48.584Z,97650.81
2022-12-23T10:44:18.380Z,97647.97
2022-12-23T10:46:54.440Z,97648.84
2022-12-23T10:49:47.564Z,97652.56
2022-12-23T10:52:20.885Z,97647.91
2022-12-23T10:54:48.382Z,97647.59
2022-12-23T10:57:18.455Z,97642.66
2022-12-23T10:59:45.421Z,97642.50
2022-12-23T11:02:12.536Z,97639.69
2022-12-23T11:04:42.061Z,97639.69
2022-12-23T11:07:42.963Z,97635.63
2022-12-23T11:10:13.299Z,97636.94
2022-12-23T11:12:47.509Z,97639.28
2022-12-23T11:15:31.246Z,97638.56
2022-12-23T11:18:05.087Z,97632.31
2022-12-23T11:20:33.295Z,97635.34
2022-12-23T11:23:02.562Z,97633.84
2022-12-23T11:25:31.936Z,97627.09
2022-12-23T11:28:03.653Z,97638.63
2022-12-23T11:30:35.549Z,97627.66
2022-12-23T11:33:03.857Z,97642.84
2022-12-23T11:35:34.319Z,97632.09
2022-12-23T11:38:02.937Z,97628.53
2022-12-23T11:40:38.908Z,97621.69
2022-12-23T11:43:14.104Z,97619.41
2022-12-23T11:45:41.314Z,97623.78
2022-12-23T11:48:27.721Z,97625.84
2022-12-23T11:51:02.495Z,97618.63
2022-12-23T11:53:29.576Z,97626.69
2022-12-23T11:56:14.878Z,97625.91
2022-12-23T11:58:55.409Z,97640.00
2022-12-23T12:01:25.559Z,97628.97
2022-12-23T12:04:02.324Z,97637.94
2022-12-23T12:06:31.215Z,97629.03
2022-12-23T12:09:00.575Z,97631.91
2022-12-23T12:11:35.039Z,97632.72
2022-12-23T12:14:04.853Z,97630.41
2022-12-23T12:16:51.679Z,97632.75
2022-12-23T12:19:41.561Z,97628.69
2022-12-23T12:22:20.060Z,97627.00
2022-12-23T12:24:54.983Z,97630.59
2022-12-23T12:27:31.715Z,97628.28
2022-12-23T12:30:08.135Z,97630.97
2022-12-23T12:32:40.845Z,97624.88
2022-12-23T12:35:53.477Z,97637.94
2022-12-23T12:38:36.411Z,97639.63
2022-12-23T12:41:28.376Z,97645.88
2022-12-23T12:44:18.599Z,97647.38
2022-12-23T12:46:54.173Z,97647.84
2022-12-23T12:49:34.211Z,97633.25
2022-12-23T12:52:25.841Z,97645.66
2022-12-23T12:55:13.908Z,97645.59
2022-12-23T12:57:41.051Z,97645.44
2022-12-23T13:00:18.404Z,97655.09
2022-12-23T13:03:22.625Z,97651.81
2022-12-23T13:06:08.099Z,97660.91
2022-12-23T13:09:08.898Z,97653.91
2022-12-23T13:11:54.535Z,97655.84
2022-12-23T13:14:46.073Z,97659.28
2022-12-23T13:17:24.769Z,97655.81
2022-12-23T13:20:27.821Z,97656.13
2022-12-23T13:23:20.846Z,97655.31
2022-12-23T13:26:00.420Z,97655.16
2022-12-23T13:28:59.265Z,97652.84
2022-12-23T13:31:49.257Z,97658.22
2022-12-23T13:34:29.303Z,97660.69
2022-12-23T13:37:20.383Z,97662.78
2022-12-23T13:40:52.317Z,97670.78
2022-12-23T13:43:22.736Z,97666.25
2022-12-23T13:45:52.766Z,97665.94
2022-12-23T13:48:22.588Z,97669.41
2022-12-23T13:50:50.363Z,97681.13
2022-12-23T13:53:47.675Z,97673.69
2022-12-23T13:56:27.218Z,97675.31
2022-12-23T13:58:54.581Z,97665.09
2022-12-23T14:01:52.988Z,97655.28
2022-12-23T14:04:59.005Z,97666.56
2022-12-23T14:07:28.497Z,97674.66
2022-12-23T14:09:59.243Z,97670.97
2022-12-23T14:12:28.518Z,97669.19
2022-12-23T14:15:20.604Z,97678.91
2022-12-23T14:18:12.937Z,97667.91
2022-12-23T14:20:51.004Z,97668.88
2022-12-23T14:23:37.063Z,97662.56
2022-12-23T14:26:30.843Z,97672.31
2022-12-23T14:29:29.167Z,97668.31
2022-12-23T14:31:57.959Z,97674.78
2022-12-23T14:34:33.161Z,97682.25
2022-12-23T14:37:21.232Z,97684.84
2022-12-23T14:39:49.084Z,97673.41
2022-12-23T14:42:35.288Z,97669.28
2022-12-23T14:45:41.539Z,97664.59
2022-12-23T14:48:34.809Z,97677.81
2022-12-23T14:51:20.353Z,97686.03
2022-12-23T14:53:53.843Z,97682.81
2022-12-23T14:56:28.706Z,97685.81
2022-12-23T14:59:52.245Z,97683.00
2022-12-23T15:02:26.587Z,97688.28
2022-12-23T15:04:55.962Z,97693.13
2022-12-23T15:07:39.398Z,97687.53
2022-12-23T15:10:15.891Z,97680.13
2022-12-23T15:12:43.913Z,97687.63
2022-12-23T15:15:18.286Z,97684.41
2022-12-23T15:17:45.655Z,97683.53
2022-12-23T15:20:25.487Z,97681.50
2022-12-23T15:22:52.870Z,97682.00
2022-12-23T15:25:32.929Z,97679.41
2022-12-23T15:28:02.910Z,97684.72
2022-12-23T15:30:37.062Z,97679.47
2022-12-23T15:33:27.982Z,97684.94
2022-12-23T15:35:54.560Z,97696.13
2022-12-23T15:38:27.296Z,97700.06
2022-12-23T15:41:00.313Z,97699.75
2022-12-23T15:43:27.447Z,97692.94
2022-12-23T15:45:54.973Z,97692.47
2022-12-23T15:48:26.523Z,97692.28
2022-12-23T15:50:59.675Z,97697.28
2022-12-23T15:53:35.093Z,97692.56
2022-12-23T15:56:08.447Z,97693.06
2022-12-23T15:58:40.151Z,97691.59
2022-12-23T16:01:13.449Z,97697.47
2022-12-23T16:03:42.965Z,97700.94
2022-12-23T16:06:15.991Z,97691.59
2022-12-23T16:08:44.304Z,97706.44
2022-12-23T16:11:20.469Z,97703.38
2022-12-23T16:13:59.630Z,97701.72
2022-12-23T16:16:31.866Z,97702.22
2022-12-23T16:18:58.941Z,97702.81
2022-12-23T16:21:32.870Z,97706.47
2022-12-23T16:24:01.275Z,97704.09
2022-12-23T16:26:28.291Z,97716.66
2022-12-23T16:28:59.635Z,97717.94
2022-12-23T16:31:26.836Z,97720.22
2022-12-23T16:33:58.506Z,97716.78
2022-12-23T16:36:25.562Z,97719.16
2022-12-23T16:38:59.839Z,97715.34
2022-12-23T16:41:27.019Z,97721.84
2022-12-23T16:43:54.075Z,97720.69
2022-12-23T16:46:23.338Z,97720.81
2022-12-23T16:48:59.686Z,97724.44
2022-12-23T16:51:29.319Z,97727.75
2022-12-23T16:53:57.791Z,97721.47
2022-12-23T16:56:36.808Z,97725.28
2022-12-23T16:59:04.552Z,97731.69
2022-12-23T17:01:34.108Z,97725.19
2022-12-23T17:04:01.106Z,97722.34
2022-12-23T17:06:28.226Z,97724.22
2022-12-23T17:08:56.792Z,97715.47
2022-12-23T17:11:25.766Z,97716.56
2022-12-23T17:13:56.613Z,97722.34
2022-12-23T17:16:28.713Z,97723.28
2022-12-23T17:18:55.680Z,97718.06
2022-12-23T17:21:26.602Z,97715.81
2022-12-23T17:23:59.334Z,97717.94
2022-12-23T17:26:26.275Z,97712.75
2022-12-23T17:28:53.202Z,97716.56
2022-12-23T17:31:26.732Z,97719.50
2022-12-23T17:33:54.600Z,97726.25
2022-12-23T17:36:22.110Z,97715.81
2022-12-23T17:38:49.203Z,97717.38
2022-12-23T17:41:34.134Z,97718.78
2022-12-23T17:44:01.872Z,97716.66
2022-12-23T17:46:29.297Z,97720.09
2022-12-23T17:48:58.595Z,97719.63
2022-12-23T17:51:27.028Z,97716.38
2022-12-23T17:53:59.036Z,97716.97
2022-12-23T17:56:28.791Z,97714.56
2022-12-23T17:58:55.839Z,97713.16
2022-12-23T18:01:28.767Z,97718.47
2022-12-23T18:03:57.471Z,97723.00
2022-12-23T18:06:27.391Z,97724.38
2022-12-23T18:08:54.771Z,97716.69
2022-12-23T18:11:30.864Z,97719.91
2022-12-23T18:13:57.901Z,97722.88
2022-12-23T18:16:24.943Z,97711.94
2022-12-23T18:18:52.965Z,97715.19
2022-12-23T18:21:25.787Z,97709.84
2022-12-23T18:23:55.043Z,97714.38
2022-12-23T18:26:21.960Z,97714.19
2022-12-23T18:28:49.077Z,97721.69
2022-12-23T18:31:18.866Z,97719.88
2022-12-23T18:33:46.524Z,97722.44
2022-12-23T18:36:23.255Z,97715.09
2022-12-23T18:38:50.284Z,97711.25
2022-12-23T18:41:17.175Z,97711.13
2022-12-23T18:43:44.084Z,97718.88
2022-12-23T18:46:11.162Z,97716.97
2022-12-23T18:48:38.107Z,97717.53
2022-12-23T18:51:05.234Z,97716.94
2022-12-23T18:53:32.324Z,97718.31
2022-12-23T18:55:59.245Z,97716.91
2022-12-23T18:58:26.245Z,97716.81
2022-12-23T19:00:53.426Z,97713.41
2022-12-23T19:03:26.976Z,97722.06
2022-12-23T19:05:55.047Z,97722.28
2022-12-23T19:08:27.233Z,97728.50
2022-12-23T19:10:56.088Z,97725.94
2022-12-23T19:13:23.985Z,97725.22
2022-12-23T19:15:51.082Z,97729.16
2022-12-23T19:18:19.998Z,97725.91
2022-12-23T19:20:48.571Z,97726.91
2022-12-23T19:23:16.632Z,97731.19
2022-12-23T19:25:52.476Z,97738.28
2022-12-23T19:28:22.550Z,97735.09
2022-12-23T19:30:49.773Z,97736.31
2022-12-23T19:33:17.216Z,97732.53
2022-12-23T19:35:44.594Z,97733.22
2022-12-23T19:38:12.560Z,97734.06
2022-12-23T19:40:40.454Z,97735.13
2022-12-23T19:43:07.637Z,97740.81
2022-12-23T19:45:34.693Z,97746.13
2022-12-23T19:48:01.714Z,97748.50
2022-12-23T19:50:28.734Z,97747.91
2022-12-23T19:52:56.550Z,97746.03
2022-12-23T19:55:24.164Z,97735.59
2022-12-23T19:57:52.385Z,97737.47
2022-12-23T20:00:19.544Z,97743.16
2022-12-23T20:02:46.481Z,97729.66
2022-12-23T20:05:13.501Z,97737.47
2022-12-23T20:07:40.468Z,97734.84
2022-12-23T20:10:08.063Z,97737.66
2022-12-23T20:12:35.188Z,97740.88
2022-12-23T20:15:02.187Z,97732.94
2022-12-23T20:17:29.266Z,97740.00
2022-12-23T20:19:56.229Z,97735.84
2022-12-23T20:22:23.258Z,97747.34
2022-12-23T20:24:51.122Z,97734.19
2022-12-23T20:27:22.693Z,97732.28
2022-12-23T20:29:53.027Z,97732.63
2022-12-23T20:32:20.066Z,97735.50
2022-12-23T20:34:49.145Z,97746.84
2022-12-23T20:37:16.323Z,97739.16
2022-12-23T20:39:43.217Z,97740.44
2022-12-23T20:42:10.302Z,97737.00
2022-12-23T20:44:37.712Z,97734.78
2022-12-23T20:47:06.332Z,97739.38
2022-12-23T20:49:33.863Z,97743.19
2022-12-23T20:52:01.395Z,97740.19
2022-12-23T20:54:33.173Z,97741.97
2022-12-23T20:57:01.263Z,97734.16
2022-12-23T20:59:28.411Z,97733.09
2022-12-23T21:01:55.476Z,97740.22
2022-12-23T21:04:22.780Z,97731.72
2022-12-23T21:06:49.957Z,97730.97
2022-12-23T21:09:17.127Z,97730.88
2022-12-23T21:11:46.661Z,97733.19
2022-12-23T21:14:14.852Z,97734.91
2022-12-23T21:16:42.343Z,97727.53
2022-12-23T21:19:15.805Z,97725.94
2022-12-23T21:21:42.737Z,97733.97
2022-12-23T21:24:10.289Z,97734.69
2022-12-23T21:26:37.430Z,97729.31
2022-12-23T21:29:06.398Z,97724.91
2022-12-23T21:31:36.332Z,97718.31
2022-12-23T21:34:03.819Z,97713.94
2022-12-23T21:36:33.911Z,97707.84
2022-12-23T21:39:01.198Z,97708.97
2022-12-23T21:41:31.010Z,97714.38
2022-12-23T21:43:59.356Z,97705.38
2022-12-23T21:46:28.661Z,97702.56
2022-12-23T21:48:57.140Z,97698.13
2022-12-23T21:51:30.366Z,97698.63
2022-12-23T21:54:01.926Z,97701.66
2022-12-23T21:56:31.471Z,97696.47
2022-12-23T21:59:04.159Z,97701.66
2022-12-23T22:01:32.127Z,97702.84
2022-12-23T22:03:59.766Z,97712.38
2022-12-23T22:06:29.500Z,97706.06
2022-12-23T22:08:57.487Z,97699.16
2022-12-23T22:11:27.496Z,97700.16
2022-12-23T22:13:56.726Z,97697.38
2022-12-23T22:16:26.168Z,97695.81
2022-12-23T22:18:54.549Z,97694.31
2022-12-23T22:21:24.022Z,97691.94
2022-12-23T22:23:52.136Z,97699.41
2022-12-23T22:26:25.239Z,97696.22
2022-12-23T22:28:56.698Z,97693.28
2022-12-23T22:31:40.096Z,97688.66
2022-12-23T22:34:08.770Z,97695.63
2022-12-23T22:36:36.125Z,97697.91
2022-12-23T22:39:03.749Z,97696.47
2022-12-23T22:41:31.271Z,97689.53
2022-12-23T22:43:59.165Z,97692.38
2022-12-23T22:46:26.575Z,97695.13
2022-12-23T22:48:53.864Z,97696.06
2022-12-23T22:51:23.273Z,97690.03
2022-12-23T22:53:50.241Z,97689.41
2022-12-23T22:56:19.027Z,97687.63
2022-12-23T22:58:46.007Z,97681.00
2022-12-23T23:01:24.478Z,97689.31
2022-12-23T23:03:57.207Z,97686.94
2022-12-23T23:06:29.989Z,97693.63
2022-12-23T23:08:58.123Z,97686.47
2022-12-23T23:11:26.687Z,97695.59
2022-12-23T23:13:53.946Z,97688.59
2022-12-23T23:16:20.934Z,97685.72
2022-12-23T23:18:47.938Z,97690.13
2022-12-23T23:21:15.716Z,97684.69
2022-12-23T23:23:43.051Z,97690.84
2022-12-23T23:26:10.452Z,97687.41
2022-12-23T23:28:40.878Z,97687.72
2022-12-23T23:33:55.847Z,97693.41
2022-12-23T23:36:22.820Z,97691.06
2022-12-23T23:38:49.881Z,97689.28
2022-12-23T23:41:22.476Z,97683.63
2022-12-23T23:43:50.325Z,97696.50
2022-12-23T23:46:17.429Z,97693.16
2022-12-23T23:48:44.340Z,97694.09
2022-12-23T23:51:12.586Z,97693.72
2022-12-23T23:53:39.606Z,97693.97
2022-12-23T23:56:07.599Z,97694.28
2022-12-23T23:58:35.151Z,97693.91
